Nicholson, Georgia
Current Conditions -  °F | °C
As of 4:15 AM on Monday 22 Dec 2014 (Local Time) from K19A Reporting Station
Haze Haze  
Wind Chill: 43°   Ceiling: 400
Heat Index: 43°   Visibility: 2mi
Dew Point: 43°   Wind: 3mph
Humidity: 100%   Direction: 80°E
Pressure: 30.06"   Gusts: NA
Location:  34.11°N, 83.43°W
Report Text: K19A 220915Z AUTO 08003KT 2SM BR OVC004 06/06 A3006 RMK AO2
Loading
Personal Weather Stations






























Interactive Weather Map New forecast layout! Learn more

10-Day Weather Forecast

Advertisements
Track Severe Weather on mobile